D/T METAR WX W/SPE G/SPE TEMP DEWP FEEL
31/01/23 07:20 EGGP 310720Z 28024KT 9000 -SHRA SCT011 BKN016 09/06 Q1020 -SHRA 27.6mph 9°C 6°C 8.6°C
31/01/23 05:50 EGGP 310550Z 25008KT 9999 BKN021 09/06 Q1020 9.2mph 9°C 6°C 8.6°C
30/01/23 21:50 EGGP 302150Z 20008KT 9999 SCT032 BKN038 06/03 Q1024 9.2mph 6°C 3°C 4.7°C
30/01/23 12:50 EGGP 301250Z 28013KT 9999 SCT025 08/04 Q1026 15.0mph 8°C 4°C 7.0°C
30/01/23 11:50 EGGP 301150Z 28013KT 9999 FEW025 09/05 Q1026 15.0mph 9°C 5°C 8.3°C
30/01/23 10:50 EGGP 301050Z 29014KT 9999 FEW035 08/04 Q1025 16.1mph 8°C 4°C 7.0°C
30/01/23 10:20 EGGP 301020Z 29012KT 9999 FEW035 08/04 Q1025 13.8mph 8°C 4°C 7.0°C
30/01/23 07:50 EGGP 300750Z 30011KT 9999 FEW015 SCT025 07/03 Q1023 12.7mph 7°C 3°C 5.7°C
30/01/23 06:50 EGGP 300650Z 28016KT 9999 SCT019 BKN030 07/03 Q1022 18.4mph 7°C 3°C 5.7°C
09/01/23 06:20 EGGP 090620Z 25009KT 9999 FEW012 SCT020 BKN031 06/04 Q0992 10.4mph 6°C 4°C 5.0°C
09/01/23 05:50 EGGP 090550Z 23013KT 9999 SCT014 SCT020 BKN035 06/04 Q0991 15.0mph 6°C 4°C 5.0°C
09/01/23 05:20 EGGP 090520Z AUTO 22011KT 9000 -RA SCT020/// BKN025/// OVC038/// 06/03 Q0990 -RA 12.7mph 6°C 3°C 4.7°C
09/01/23 04:50 EGGP 090450Z AUTO 22008KT 9999 FEW027/// SCT033/// BKN039/// 05/03 Q0990 9.2mph 5°C 3°C 3.7°C
09/01/23 04:20 EGGP 090420Z AUTO 22011KT 9999 FEW032/// BKN038/// BKN045/// 06/03 Q0990 12.7mph 6°C 3°C 4.7°C
09/01/23 03:50 EGGP 090350Z AUTO 23008KT 9999 NCD 05/03 Q0990 9.2mph 5°C 3°C 3.7°C
09/01/23 02:50 EGGP 090250Z AUTO 21008KT 9999 -RA FEW017/// SCT037/// 06/03 Q0989 -RA 9.2mph 6°C 3°C 4.7°C
09/01/23 02:20 EGGP 090220Z AUTO 19010KT 160V220 9999 FEW017/// BKN022/// BKN027/// 07/04 Q0989 11.5mph 7°C 4°C 6.0°C
09/01/23 01:20 EGGP 090120Z 25011KT 9999 SCT022 BKN032 07/04 Q0988 12.7mph 7°C 4°C 6.0°C
09/01/23 00:50 EGGP 090050Z 19006KT 9999 SCT022 BKN032 05/03 Q0987 6.9mph 5°C 3°C 3.7°C
08/01/23 23:50 EGGP 082350Z 19007KT 9999 SCT021 BKN032 05/03 Q0987 8.1mph 5°C 3°C 3.7°C
08/01/23 22:50 EGGP 082250Z 20007KT 9999 SCT023 BKN028 05/03 Q0986 8.1mph 5°C 3°C 3.7°C
08/01/23 22:20 EGGP 082220Z 20007KT 9999 FEW031 05/03 Q0986 8.1mph 5°C 3°C 3.7°C
08/01/23 20:50 EGGP 082050Z 18006KT 9999 FEW030 SCT038 05/02 Q0985 6.9mph 5°C 2°C 3.4°C
08/01/23 19:20 EGGP 081920Z 19008KT 9999 FEW027 05/03 Q0984 9.2mph 5°C 3°C 3.7°C
08/01/23 18:50 EGGP 081850Z 19011KT 9999 VCSH FEW027 SCT034 05/03 Q0984 VCSH 12.7mph 5°C 3°C 3.7°C
08/01/23 18:20 EGGP 081820Z 19013KT 9999 FEW027 SCT034 05/03 Q0984 15.0mph 5°C 3°C 3.7°C
08/01/23 17:50 EGGP 081750Z 17009KT 130V220 9999 FEW037 05/03 Q0984 10.4mph 5°C 3°C 3.7°C
08/01/23 16:50 EGGP 081650Z 16007KT 120V200 9999 FEW033 SCT040 05/03 Q0984 8.1mph 5°C 3°C 3.7°C
08/01/23 16:20 EGGP 081620Z 19011KT 9999 FEW030 06/03 Q0984 12.7mph 6°C 3°C 4.7°C
08/01/23 15:50 EGGP 081550Z 17007KT 140V200 9999 FEW030 06/03 Q0984 8.1mph 6°C 3°C 4.7°C
08/01/23 14:50 EGGP 081450Z 18007KT 130V210 9999 FEW024 07/04 Q0984 8.1mph 7°C 4°C 6.0°C
08/01/23 14:20 EGGP 081420Z 19009KT 150V220 9999 FEW022 06/03 Q0984 10.4mph 6°C 3°C 4.7°C
08/01/23 13:50 EGGP 081350Z 19007KT 130V210 9999 VCSH FEW022 SCT030 06/03 Q0984 VCSH 8.1mph 6°C 3°C 4.7°C
08/01/23 12:50 EGGP 081250Z 19009KT 150V210 9999 VCSH SCT028 06/03 Q0985 VCSH 10.4mph 6°C 3°C 4.7°C
08/01/23 12:20 EGGP 081220Z 19013KT 9999 VCSH SCT028 05/03 Q0985 VCSH 15.0mph 5°C 3°C 3.7°C
08/01/23 11:50 EGGP 081150Z 18015KT 8000 -SHRA SCT014 BKN025 OVC036 04/03 Q0985 RERA -SHRA 17.3mph 4°C 3°C 2.7°C
08/01/23 11:20 EGGP 081120Z 17011KT 140V200 6000 -SHRA SCT008 BKN012 OVC016 06/04 Q0985 -SHRA 12.7mph 6°C 4°C 5.0°C
08/01/23 10:50 EGGP 081050Z 16010KT 120V230 9999 -SHRA SCT012 BKN018 06/04 Q0986 -SHRA 11.5mph 6°C 4°C 5.0°C
08/01/23 10:20 EGGP 081020Z 15011KT 100V210 9999 SCT023 06/04 Q0986 12.7mph 6°C 4°C 5.0°C
08/01/23 09:20 EGGP 080920Z 15011KT 120V180 9999 FEW021 SCT049 06/03 Q0987 12.7mph 6°C 3°C 4.7°C
08/01/23 08:50 EGGP 080850Z 15010KT 110V190 9999 FEW032 SCT040 06/03 Q0987 11.5mph 6°C 3°C 4.7°C
08/01/23 08:20 EGGP 080820Z 15009KT 100V200 9999 FEW032 SCT039 06/04 Q0988 10.4mph 6°C 4°C 5.0°C
08/01/23 07:50 EGGP 080750Z 15010KT 100V200 9999 VCSH FEW032 SCT038 06/04 Q0988 VCSH 11.5mph 6°C 4°C 5.0°C
08/01/23 07:20 EGGP 080720Z 14010KT 110V180 9999 VCSH FEW032 SCT037 06/03 Q0988 VCSH 11.5mph 6°C 3°C 4.7°C
08/01/23 06:50 EGGP 080650Z 17009KT 130V210 9999 -RA FEW010 BKN040 07/04 Q0988 -RA 10.4mph 7°C 4°C 6.0°C
08/01/23 05:50 EGGP 080550Z 18009KT 9999 FEW015 SCT037 BKN047 07/03 Q0989 10.4mph 7°C 3°C 5.7°C
08/01/23 05:20 EGGP 080520Z AUTO 18014KT 9999 SCT040/// BKN048/// 07/02 Q0988 16.1mph 7°C 2°C 5.4°C
08/01/23 04:50 EGGP 080450Z AUTO 16009KT 110V210 9999 FEW046/// 07/04 Q0988 10.4mph 7°C 4°C 6.0°C
08/01/23 04:20 EGGP 080420Z AUTO 17009KT 120V210 9999 FEW037/// 07/04 Q0989 10.4mph 7°C 4°C 6.0°C
08/01/23 03:50 EGGP 080350Z AUTO 16007KT 110V200 9999 FEW045/// 07/04 Q0989 8.1mph 7°C 4°C 6.0°C
08/01/23 03:20 EGGP 080320Z AUTO 18011KT 7000 -RA FEW006/// BKN030/// BKN035/// 07/05 Q0989 -RA 12.7mph 7°C 5°C 6.3°C
08/01/23 02:20 EGGP 080220Z AUTO 19012KT 9999 FEW025/// BKN039/// 08/05 Q0989 13.8mph 8°C 5°C 7.3°C
08/01/23 01:50 EGGP 080150Z AUTO 20014KT 9999 FEW019/// SCT027/// BKN033/// 08/05 Q0988 16.1mph 8°C 5°C 7.3°C
08/01/23 01:20 EGGP 080120Z AUTO 21013KT 9999 FEW012/// BKN026/// BKN031/// 08/05 Q0989 RERA 15.0mph 8°C 5°C 7.3°C
08/01/23 00:20 EGGP 080020Z 20016KT 9999 -SHRA FEW021 SCT029 BKN035 09/04 Q0989 -SHRA 18.4mph 9°C 4°C 8.0°C
07/01/23 23:50 EGGP 072350Z 20017KT 9999 FEW034 BKN045 08/04 Q0988 19.6mph 8°C 4°C 7.0°C
07/01/23 23:20 EGGP 072320Z 21018G28KT 9999 SCT027 BKN032 09/04 Q0989 20.7mph 32.2mph 9°C 4°C 8.0°C
07/01/23 22:50 EGGP 072250Z 21015KT 9999 RA BKN027 09/05 Q0989 RA 17.3mph 9°C 5°C 8.3°C
07/01/23 22:20 EGGP 072220Z 20014KT 9999 SCT028 BKN034 08/05 Q0989 16.1mph 8°C 5°C 7.3°C
07/01/23 21:50 EGGP 072150Z 20015KT 9999 SCT031 BKN037 07/04 Q0988 17.3mph 7°C 4°C 6.0°C
07/01/23 21:20 EGGP 072120Z 20015KT 9999 FEW022 BKN032 07/05 Q0988 17.3mph 7°C 5°C 6.3°C
07/01/23 20:50 EGGP 072050Z 18016KT 9999 SCT029 BKN034 07/04 Q0988 18.4mph 7°C 4°C 6.0°C
07/01/23 20:20 EGGP 072020Z 17009KT 9999 SCT029 BKN034 07/04 Q0989 10.4mph 7°C 4°C 6.0°C
07/01/23 19:50 EGGP 071950Z 16010KT 120V210 9999 SCT027 BKN032 07/04 Q0988 11.5mph 7°C 4°C 6.0°C
07/01/23 19:20 EGGP 071920Z 15010KT 110V210 9999 SCT030 BKN036 07/04 Q0988 11.5mph 7°C 4°C 6.0°C
07/01/23 18:50 EGGP 071850Z 17008KT 110V220 9999 FEW030 BKN036 08/04 Q0988 9.2mph 8°C 4°C 7.0°C
07/01/23 18:20 EGGP 071820Z 18011KT 9999 FEW030 08/04 Q0988 12.7mph 8°C 4°C 7.0°C
07/01/23 17:20 EGGP 071720Z 21011KT 9999 BKN028 BKN036 09/04 Q0989 12.7mph 9°C 4°C 8.0°C
07/01/23 16:20 EGGP 071620Z 18010KT 9999 SCT030 BKN040 09/06 Q0988 11.5mph 9°C 6°C 8.6°C
07/01/23 15:50 EGGP 071550Z 18012KT 9999 BKN031 BKN036 10/06 Q0988 13.8mph 10°C 6°C 9.6°C
07/01/23 15:20 EGGP 071520Z 18013KT 9999 SCT034 BKN042 09/06 Q0988 15.0mph 9°C 6°C 8.6°C
07/01/23 14:50 EGGP 071450Z 19017KT 9999 SCT034 10/06 Q0988 19.6mph 10°C 6°C 9.6°C
07/01/23 14:20 EGGP 071420Z 19018KT 9999 FEW030 SCT033 11/05 Q0989 20.7mph 11°C 5°C 10.3°C
07/01/23 12:50 EGGP 071250Z 18008KT 9999 FEW028 11/06 Q0990 9.2mph 11°C 6°C 10.6°C
07/01/23 12:20 EGGP 071220Z 18010KT 130V200 9999 FEW020 SCT027 11/06 Q0991 11.5mph 11°C 6°C 10.6°C
07/01/23 11:50 EGGP 071150Z 19008KT 140V220 9999 FEW020 SCT027 11/07 Q0991 9.2mph 11°C 7°C 11.0°C
07/01/23 10:50 EGGP 071050Z 20008KT 9999 FEW018 SCT044 10/08 Q0991 9.2mph 10°C 8°C 10.4°C
07/01/23 10:20 EGGP 071020Z 22013KT 9999 5000E -RA FEW012 BKN022 10/08 Q0991 -RA 15.0mph 10°C 8°C 10.4°C
07/01/23 09:20 EGGP 070920Z 16009KT 120V210 9000 -DZ FEW022 BKN036 10/08 Q0991 -DZ 10.4mph 10°C 8°C 10.4°C
07/01/23 08:50 EGGP 070850Z 17011KT 120V210 9000 -RADZ FEW022 BKN036 10/08 Q0992 -RA -DZ 12.7mph 10°C 8°C 10.4°C
07/01/23 08:20 EGGP 070820Z 16010KT 130V200 9999 -RA FEW037 10/08 Q0991 -RA 11.5mph 10°C 8°C 10.4°C
07/01/23 07:50 EGGP 070750Z 16009KT 110V200 9999 FEW030 10/08 Q0992 10.4mph 10°C 8°C 10.4°C
07/01/23 06:50 EGGP 070650Z 17011KT 120V200 9999 -RA SCT013 BKN032 11/09 Q0992 -RA 12.7mph 11°C 9°C 11.8°C
07/01/23 06:20 EGGP 070620Z 17017KT 9999 -RA SCT013 BKN037 11/09 Q0992 -RA 19.6mph 11°C 9°C 11.8°C
07/01/23 05:50 EGGP 070550Z AUTO 16018KT 9999 -RA FEW018/// SCT025/// BKN030/// 12/09 Q0993 -RA 20.7mph 12°C 9°C 12.8°C
07/01/23 04:50 EGGP 070450Z AUTO 15009KT 110V180 9999 -RA SCT013/// SCT017/// BKN022/// 11/09 Q0994 -RA 10.4mph 11°C 9°C 11.8°C
07/01/23 04:20 EGGP 070420Z AUTO 17015KT 9999 -RA SCT033/// BKN038/// BKN045/// 11/09 Q0995 -RA 17.3mph 11°C 9°C 11.8°C
07/01/23 03:50 EGGP 070350Z AUTO 17015KT 9999 FEW011/// SCT028/// BKN033/// 11/09 Q0996 17.3mph 11°C 9°C 11.8°C
07/01/23 03:20 EGGP 070320Z AUTO 17014KT 9999 -RA SCT035/// BKN043/// 11/10 Q0996 -RA 16.1mph 11°C 10°C 12.3°C
07/01/23 02:50 EGGP 070250Z AUTO 17016KT 9999 -RA FEW035/// SCT044/// 11/09 Q0997 -RA 18.4mph 11°C 9°C 11.8°C
07/01/23 02:20 EGGP 070220Z AUTO 18017KT 9999 FEW010/// SCT015/// BKN021/// 12/10 Q0997 19.6mph 12°C 10°C 13.3°C
07/01/23 01:50 EGGP 070150Z AUTO 16013KT 7000 -RA FEW007/// SCT010/// BKN015/// 11/10 Q0997 RERA -RA 15.0mph 11°C 10°C 12.3°C
07/01/23 01:20 EGGP 070120Z AUTO 16013KT 6000 -RA SCT010/// BKN014/// OVC025/// 11/10 Q0998 -RA 15.0mph 11°C 10°C 12.3°C
07/01/23 00:50 EGGP 070050Z AUTO 15016KT 9999 -RA BKN018/// BKN023/// OVC030/// 12/10 Q0998 -RA 18.4mph 12°C 10°C 13.3°C
07/01/23 00:20 EGGP 070020Z AUTO 15015KT 9999 -RA FEW007/// SCT019/// BKN024/// 11/10 Q0999 -RA 17.3mph 11°C 10°C 12.3°C
06/01/23 23:50 EGGP 062350Z AUTO 15015KT 5000 -RA FEW008/// BKN016/// BKN028/// 11/10 Q1000 RERA -RA 17.3mph 11°C 10°C 12.3°C